Foraker, Oklahoma
Current Conditions -  °F | °C
As of 9:53 PM on Sunday 23 Nov 2014 (Local Time) from KPNC Reporting Station
Few Clouds Few Clouds  
Wind Chill: 40°   Ceiling: Unl
Heat Index: 43°   Visibility: 10mi
Dew Point: 38°   Wind: 5mph
Humidity: 82%   Direction: 300°WNW
Pressure: 29.67"   Gusts: NA
Location:  36.8783°N, 96.6155°W
Report Text: KPNC 240353Z AUTO 30004KT 10SM FEW120 06/03 A2967 RMK AO2 SLP045 T00610033
Loading
Personal Weather Stations






























Interactive Weather Map New forecast layout! Learn more

10-Day Weather Forecast

Advertisements
Track Severe Weather on mobile